sensor_id;sensor_type;location;lat;lon;timestamp;temperature;humidity
7688;DHT22;30781;48.154;11.554;2022-08-21T00:00:27;17.60;99.90
7688;DHT22;30781;48.154;11.554;2022-08-21T00:02:57;17.60;99.90
7688;DHT22;30781;48.154;11.554;2022-08-21T00:05:25;17.50;99.90
7688;DHT22;30781;48.154;11.554;2022-08-21T00:07:53;17.50;99.90
7688;DHT22;30781;48.154;11.554;2022-08-21T00:10:21;17.40;99.90
7688;DHT22;30781;48.154;11.554;2022-08-21T00:12:50;17.40;99.90
7688;DHT22;30781;48.154;11.554;2022-08-21T00:15:20;17.30;99.90
7688;DHT22;30781;48.154;11.554;2022-08-21T00:17:47;17.30;99.90
7688;DHT22;30781;48.154;11.554;2022-08-21T00:20:15;17.30;99.90
7688;DHT22;30781;48.154;11.554;2022-08-21T00:22:43;17.20;99.90
7688;DHT22;30781;48.154;11.554;2022-08-21T00:25:12;17.20;99.90
7688;DHT22;30781;48.154;11.554;2022-08-21T00:27:41;17.20;99.90
7688;DHT22;30781;48.154;11.554;2022-08-21T00:30:12;17.10;99.90
7688;DHT22;30781;48.154;11.554;2022-08-21T00:32:41;17.10;99.90
7688;DHT22;30781;48.154;11.554;2022-08-21T00:35:14;17.10;99.90
7688;DHT22;30781;48.154;11.554;2022-08-21T00:37:42;17.10;99.90
7688;DHT22;30781;48.154;11.554;2022-08-21T00:40:12;17.10;99.90
7688;DHT22;30781;48.154;11.554;2022-08-21T00:42:40;17.10;99.90
7688;DHT22;30781;48.154;11.554;2022-08-21T00:45:11;17.10;99.90
7688;DHT22;30781;48.154;11.554;2022-08-21T00:47:38;17.10;99.90
7688;DHT22;30781;48.154;11.554;2022-08-21T00:50:07;17.10;99.90
7688;DHT22;30781;48.154;11.554;2022-08-21T00:52:36;17.00;99.90
7688;DHT22;30781;48.154;11.554;2022-08-21T00:55:06;17.00;99.90
7688;DHT22;30781;48.154;11.554;2022-08-21T00:57:42;17.00;99.90
7688;DHT22;30781;48.154;11.554;2022-08-21T01:00:17;16.90;99.90
7688;DHT22;30781;48.154;11.554;2022-08-21T01:02:46;16.90;99.90
7688;DHT22;30781;48.154;11.554;2022-08-21T01:05:14;16.90;99.90
7688;DHT22;30781;48.154;11.554;2022-08-21T01:07:42;16.80;99.90
7688;DHT22;30781;48.154;11.554;2022-08-21T01:10:11;16.80;99.90
7688;DHT22;30781;48.154;11.554;2022-08-21T01:12:40;16.80;99.90
7688;DHT22;30781;48.154;11.554;2022-08-21T01:15:08;16.70;99.90
7688;DHT22;30781;48.154;11.554;2022-08-21T01:17:37;16.70;99.90
7688;DHT22;30781;48.154;11.554;2022-08-21T01:20:07;16.70;99.90
7688;DHT22;30781;48.154;11.554;2022-08-21T01:22:37;16.70;99.90
7688;DHT22;30781;48.154;11.554;2022-08-21T01:25:06;16.70;99.90
7688;DHT22;30781;48.154;11.554;2022-08-21T01:27:34;16.60;99.90
7688;DHT22;30781;48.154;11.554;2022-08-21T01:30:07;16.60;99.90
7688;DHT22;30781;48.154;11.554;2022-08-21T01:32:36;16.60;99.90
7688;DHT22;30781;48.154;11.554;2022-08-21T01:35:06;16.50;99.90
7688;DHT22;30781;48.154;11.554;2022-08-21T01:37:33;16.50;99.90
7688;DHT22;30781;48.154;11.554;2022-08-21T01:40:03;16.50;99.90
7688;DHT22;30781;48.154;11.554;2022-08-21T01:42:31;16.50;99.90
7688;DHT22;30781;48.154;11.554;2022-08-21T01:44:58;16.50;99.90
7688;DHT22;30781;48.154;11.554;2022-08-21T01:47:26;16.50;99.90
7688;DHT22;30781;48.154;11.554;2022-08-21T01:49:53;16.40;99.90
7688;DHT22;30781;48.154;11.554;2022-08-21T01:52:20;16.40;99.90
7688;DHT22;30781;48.154;11.554;2022-08-21T01:54:48;16.40;99.90
7688;DHT22;30781;48.154;11.554;2022-08-21T01:57:16;16.30;99.90
7688;DHT22;30781;48.154;11.554;2022-08-21T01:59:44;16.30;99.90
7688;DHT22;30781;48.154;11.554;2022-08-21T02:02:11;16.30;99.90
7688;DHT22;30781;48.154;11.554;2022-08-21T02:04:38;16.30;99.90
7688;DHT22;30781;48.154;11.554;2022-08-21T02:07:05;16.20;99.90
7688;DHT22;30781;48.154;11.554;2022-08-21T02:09:33;16.20;99.90
7688;DHT22;30781;48.154;11.554;2022-08-21T02:12:00;16.20;99.90
7688;DHT22;30781;48.154;11.554;2022-08-21T02:14:29;16.20;99.90
7688;DHT22;30781;48.154;11.554;2022-08-21T02:16:57;16.20;99.90
7688;DHT22;30781;48.154;11.554;2022-08-21T02:19:24;16.20;99.90
7688;DHT22;30781;48.154;11.554;2022-08-21T02:21:51;16.10;99.90
7688;DHT22;30781;48.154;11.554;2022-08-21T02:24:18;16.20;99.90
7688;DHT22;30781;48.154;11.554;2022-08-21T02:26:46;16.10;99.90
7688;DHT22;30781;48.154;11.554;2022-08-21T02:29:13;16.10;99.90
7688;DHT22;30781;48.154;11.554;2022-08-21T02:31:42;16.10;99.90
7688;DHT22;30781;48.154;11.554;2022-08-21T02:34:09;16.10;99.90
7688;DHT22;30781;48.154;11.554;2022-08-21T02:36:37;16.00;99.90
7688;DHT22;30781;48.154;11.554;2022-08-21T02:39:04;16.00;99.90
7688;DHT22;30781;48.154;11.554;2022-08-21T02:41:31;16.00;99.90
7688;DHT22;30781;48.154;11.554;2022-08-21T02:43:58;16.00;99.90
7688;DHT22;30781;48.154;11.554;2022-08-21T02:46:26;16.00;99.90
7688;DHT22;30781;48.154;11.554;2022-08-21T02:48:54;16.00;99.90
7688;DHT22;30781;48.154;11.554;2022-08-21T02:51:21;16.00;99.90
7688;DHT22;30781;48.154;11.554;2022-08-21T02:53:49;16.00;99.90
7688;DHT22;30781;48.154;11.554;2022-08-21T02:56:19;16.00;99.90
7688;DHT22;30781;48.154;11.554;2022-08-21T02:58:48;16.00;99.90
7688;DHT22;30781;48.154;11.554;2022-08-21T03:01:17;15.90;99.90
7688;DHT22;30781;48.154;11.554;2022-08-21T03:03:46;15.90;99.90
7688;DHT22;30781;48.154;11.554;2022-08-21T03:06:18;15.90;99.90
7688;DHT22;30781;48.154;11.554;2022-08-21T03:08:46;15.90;99.90
7688;DHT22;30781;48.154;11.554;2022-08-21T03:11:14;15.90;99.90
7688;DHT22;30781;48.154;11.554;2022-08-21T03:13:42;15.90;99.90
7688;DHT22;30781;48.154;11.554;2022-08-21T03:16:09;15.90;99.90
7688;DHT22;30781;48.154;11.554;2022-08-21T03:18:37;15.90;99.90
7688;DHT22;30781;48.154;11.554;2022-08-21T03:21:05;15.90;99.90
7688;DHT22;30781;48.154;11.554;2022-08-21T03:23:34;15.90;99.90
7688;DHT22;30781;48.154;11.554;2022-08-21T03:26:02;15.90;99.90
7688;DHT22;30781;48.154;11.554;2022-08-21T03:28:29;15.90;99.90
7688;DHT22;30781;48.154;11.554;2022-08-21T03:30:56;15.90;99.90
7688;DHT22;30781;48.154;11.554;2022-08-21T03:33:24;15.80;99.90
7688;DHT22;30781;48.154;11.554;2022-08-21T03:35:57;15.80;99.90
7688;DHT22;30781;48.154;11.554;2022-08-21T03:38:27;15.80;99.90
7688;DHT22;30781;48.154;11.554;2022-08-21T03:40:58;15.80;99.90
7688;DHT22;30781;48.154;11.554;2022-08-21T03:43:26;15.80;99.90
7688;DHT22;30781;48.154;11.554;2022-08-21T03:45:53;15.80;99.90
7688;DHT22;30781;48.154;11.554;2022-08-21T03:48:20;15.80;99.90
7688;DHT22;30781;48.154;11.554;2022-08-21T03:50:48;15.80;99.90
7688;DHT22;30781;48.154;11.554;2022-08-21T03:53:16;15.70;99.90
7688;DHT22;30781;48.154;11.554;2022-08-21T03:55:44;15.70;99.90
7688;DHT22;30781;48.154;11.554;2022-08-21T03:58:14;15.70;99.90
7688;DHT22;30781;48.154;11.554;2022-08-21T04:00:41;15.70;99.90
7688;DHT22;30781;48.154;11.554;2022-08-21T04:03:08;15.80;99.90
7688;DHT22;30781;48.154;11.554;2022-08-21T04:05:35;15.70;99.90
7688;DHT22;30781;48.154;11.554;2022-08-21T04:08:05;15.70;99.90
7688;DHT22;30781;48.154;11.554;2022-08-21T04:10:34;15.70;99.90
7688;DHT22;30781;48.154;11.554;2022-08-21T04:13:03;15.70;99.90
7688;DHT22;30781;48.154;11.554;2022-08-21T04:15:32;15.70;99.90
7688;DHT22;30781;48.154;11.554;2022-08-21T04:18:00;15.70;99.90
7688;DHT22;30781;48.154;11.554;2022-08-21T04:20:28;15.70;99.90
7688;DHT22;30781;48.154;11.554;2022-08-21T04:22:55;15.70;99.90
7688;DHT22;30781;48.154;11.554;2022-08-21T04:25:23;15.70;99.90
7688;DHT22;30781;48.154;11.554;2022-08-21T04:27:51;15.70;99.90
7688;DHT22;30781;48.154;11.554;2022-08-21T04:30:18;15.70;99.90
7688;DHT22;30781;48.154;11.554;2022-08-21T04:32:49;15.80;99.90
7688;DHT22;30781;48.154;11.554;2022-08-21T04:35:19;15.80;99.90
7688;DHT22;30781;48.154;11.554;2022-08-21T04:37:46;15.80;99.90
7688;DHT22;30781;48.154;11.554;2022-08-21T04:40:15;15.80;99.90
7688;DHT22;30781;48.154;11.554;2022-08-21T04:42:44;15.90;99.90
7688;DHT22;30781;48.154;11.554;2022-08-21T04:45:17;15.90;99.90
7688;DHT22;30781;48.154;11.554;2022-08-21T04:47:49;15.90;99.90
7688;DHT22;30781;48.154;11.554;2022-08-21T04:50:17;15.90;99.90
7688;DHT22;30781;48.154;11.554;2022-08-21T04:52:45;15.90;99.90
7688;DHT22;30781;48.154;11.554;2022-08-21T04:55:12;15.90;99.90
7688;DHT22;30781;48.154;11.554;2022-08-21T04:57:40;15.90;99.90
7688;DHT22;30781;48.154;11.554;2022-08-21T05:00:09;16.00;99.90
7688;DHT22;30781;48.154;11.554;2022-08-21T05:02:39;15.90;99.90
7688;DHT22;30781;48.154;11.554;2022-08-21T05:05:09;16.00;99.90
7688;DHT22;30781;48.154;11.554;2022-08-21T05:07:37;16.00;99.90
7688;DHT22;30781;48.154;11.554;2022-08-21T05:10:05;16.10;99.90
7688;DHT22;30781;48.154;11.554;2022-08-21T05:12:34;16.10;99.90
7688;DHT22;30781;48.154;11.554;2022-08-21T05:15:03;16.20;99.90
7688;DHT22;30781;48.154;11.554;2022-08-21T05:17:30;16.20;99.90
7688;DHT22;30781;48.154;11.554;2022-08-21T05:19:57;16.30;99.90
7688;DHT22;30781;48.154;11.554;2022-08-21T05:22:26;16.30;99.90
7688;DHT22;30781;48.154;11.554;2022-08-21T05:24:53;16.30;99.90
7688;DHT22;30781;48.154;11.554;2022-08-21T05:27:21;16.30;99.90
7688;DHT22;30781;48.154;11.554;2022-08-21T05:29:48;16.40;99.90
7688;DHT22;30781;48.154;11.554;2022-08-21T05:32:15;16.50;99.90
7688;DHT22;30781;48.154;11.554;2022-08-21T05:34:43;16.40;99.90
7688;DHT22;30781;48.154;11.554;2022-08-21T05:37:11;16.40;99.90
7688;DHT22;30781;48.154;11.554;2022-08-21T05:39:40;16.50;99.90
7688;DHT22;30781;48.154;11.554;2022-08-21T05:42:07;16.50;99.90
7688;DHT22;30781;48.154;11.554;2022-08-21T05:44:34;16.50;99.90
7688;DHT22;30781;48.154;11.554;2022-08-21T05:47:03;16.60;99.90
7688;DHT22;30781;48.154;11.554;2022-08-21T05:49:31;16.60;99.90
7688;DHT22;30781;48.154;11.554;2022-08-21T05:51:59;16.60;99.90
7688;DHT22;30781;48.154;11.554;2022-08-21T05:54:26;16.70;99.90
7688;DHT22;30781;48.154;11.554;2022-08-21T05:56:55;17.00;99.90
7688;DHT22;30781;48.154;11.554;2022-08-21T05:59:23;17.50;99.90
7688;DHT22;30781;48.154;11.554;2022-08-21T06:01:50;18.30;99.90
7688;DHT22;30781;48.154;11.554;2022-08-21T06:04:18;19.10;99.90
7688;DHT22;30781;48.154;11.554;2022-08-21T06:06:46;20.00;99.90
7688;DHT22;30781;48.154;11.554;2022-08-21T06:09:14;20.80;99.90
7688;DHT22;30781;48.154;11.554;2022-08-21T06:11:41;21.60;99.90
7688;DHT22;30781;48.154;11.554;2022-08-21T06:14:10;22.30;99.90
7688;DHT22;30781;48.154;11.554;2022-08-21T06:16:40;22.90;99.90
7688;DHT22;30781;48.154;11.554;2022-08-21T06:19:07;23.40;99.90
7688;DHT22;30781;48.154;11.554;2022-08-21T06:21:35;23.90;99.90
7688;DHT22;30781;48.154;11.554;2022-08-21T06:24:02;24.40;99.90
7688;DHT22;30781;48.154;11.554;2022-08-21T06:26:30;24.90;99.90
7688;DHT22;30781;48.154;11.554;2022-08-21T06:28:58;25.40;99.90
7688;DHT22;30781;48.154;11.554;2022-08-21T06:31:28;25.60;99.90
7688;DHT22;30781;48.154;11.554;2022-08-21T06:33:56;25.90;99.90
7688;DHT22;30781;48.154;11.554;2022-08-21T06:36:23;26.30;99.90
7688;DHT22;30781;48.154;11.554;2022-08-21T06:38:50;26.60;99.90
7688;DHT22;30781;48.154;11.554;2022-08-21T06:41:18;26.80;99.90
7688;DHT22;30781;48.154;11.554;2022-08-21T06:43:45;27.20;99.90
7688;DHT22;30781;48.154;11.554;2022-08-21T06:46:13;27.50;99.90
7688;DHT22;30781;48.154;11.554;2022-08-21T06:48:41;27.70;99.90
7688;DHT22;30781;48.154;11.554;2022-08-21T06:51:09;28.00;99.90
7688;DHT22;30781;48.154;11.554;2022-08-21T06:53:36;28.30;99.90
7688;DHT22;30781;48.154;11.554;2022-08-21T06:56:04;28.60;99.90
7688;DHT22;30781;48.154;11.554;2022-08-21T06:58:31;29.00;99.90
7688;DHT22;30781;48.154;11.554;2022-08-21T07:00:59;29.30;99.90
7688;DHT22;30781;48.154;11.554;2022-08-21T07:03:29;29.60;99.90
7688;DHT22;30781;48.154;11.554;2022-08-21T07:05:58;29.80;99.90
7688;DHT22;30781;48.154;11.554;2022-08-21T07:08:26;30.00;99.90
7688;DHT22;30781;48.154;11.554;2022-08-21T07:10:55;30.30;99.90
7688;DHT22;30781;48.154;11.554;2022-08-21T07:13:23;30.50;99.90
7688;DHT22;30781;48.154;11.554;2022-08-21T07:15:50;30.60;99.90
7688;DHT22;30781;48.154;11.554;2022-08-21T07:18:18;30.60;99.90
7688;DHT22;30781;48.154;11.554;2022-08-21T07:20:46;30.60;99.90
7688;DHT22;30781;48.154;11.554;2022-08-21T07:23:19;30.70;99.90
7688;DHT22;30781;48.154;11.554;2022-08-21T07:25:49;30.90;99.90
7688;DHT22;30781;48.154;11.554;2022-08-21T07:28:17;31.00;99.90
7688;DHT22;30781;48.154;11.554;2022-08-21T07:30:44;31.10;99.90
7688;DHT22;30781;48.154;11.554;2022-08-21T07:33:11;31.10;99.90
7688;DHT22;30781;48.154;11.554;2022-08-21T07:35:39;31.10;99.90
7688;DHT22;30781;48.154;11.554;2022-08-21T07:38:06;31.20;99.70
7688;DHT22;30781;48.154;11.554;2022-08-21T07:40:35;31.30;99.90
7688;DHT22;30781;48.154;11.554;2022-08-21T07:43:02;31.30;98.80
7688;DHT22;30781;48.154;11.554;2022-08-21T07:45:30;31.30;99.20
7688;DHT22;30781;48.154;11.554;2022-08-21T07:47:57;31.50;99.90
7688;DHT22;30781;48.154;11.554;2022-08-21T07:50:25;31.60;98.80
7688;DHT22;30781;48.154;11.554;2022-08-21T07:52:53;31.80;99.00
7688;DHT22;30781;48.154;11.554;2022-08-21T07:55:20;32.00;98.70
7688;DHT22;30781;48.154;11.554;2022-08-21T07:57:50;32.20;98.50
7688;DHT22;30781;48.154;11.554;2022-08-21T08:00:20;32.50;98.90
7688;DHT22;30781;48.154;11.554;2022-08-21T08:02:50;32.60;98.30
7688;DHT22;30781;48.154;11.554;2022-08-21T08:05:20;32.50;96.60
7688;DHT22;30781;48.154;11.554;2022-08-21T08:07:48;32.40;96.40
7688;DHT22;30781;48.154;11.554;2022-08-21T08:10:16;32.20;95.60
7688;DHT22;30781;48.154;11.554;2022-08-21T08:12:45;31.80;95.40
7688;DHT22;30781;48.154;11.554;2022-08-21T08:15:16;31.60;97.70
7688;DHT22;30781;48.154;11.554;2022-08-21T08:17:43;31.60;99.10
7688;DHT22;30781;48.154;11.554;2022-08-21T08:20:13;31.80;98.10
7688;DHT22;30781;48.154;11.554;2022-08-21T08:22:41;31.80;98.00
7688;DHT22;30781;48.154;11.554;2022-08-21T08:25:11;32.00;98.50
7688;DHT22;30781;48.154;11.554;2022-08-21T08:27:38;32.20;98.50
7688;DHT22;30781;48.154;11.554;2022-08-21T08:30:08;32.20;97.80
7688;DHT22;30781;48.154;11.554;2022-08-21T08:32:38;32.30;98.20
7688;DHT22;30781;48.154;11.554;2022-08-21T08:35:07;32.20;97.60
7688;DHT22;30781;48.154;11.554;2022-08-21T08:37:35;32.10;97.60
7688;DHT22;30781;48.154;11.554;2022-08-21T08:40:07;31.90;97.10
7688;DHT22;30781;48.154;11.554;2022-08-21T08:42:37;31.60;97.60
7688;DHT22;30781;48.154;11.554;2022-08-21T08:45:06;31.60;98.10
7688;DHT22;30781;48.154;11.554;2022-08-21T08:47:38;31.40;85.30
7688;DHT22;30781;48.154;11.554;2022-08-21T08:50:07;31.50;86.10
7688;DHT22;30781;48.154;11.554;2022-08-21T08:52:41;31.50;83.40
7688;DHT22;30781;48.154;11.554;2022-08-21T08:55:14;31.30;82.40
7688;DHT22;30781;48.154;11.554;2022-08-21T08:57:45;31.00;84.30
7688;DHT22;30781;48.154;11.554;2022-08-21T09:00:15;30.90;83.50
7688;DHT22;30781;48.154;11.554;2022-08-21T09:02:46;30.80;85.60
7688;DHT22;30781;48.154;11.554;2022-08-21T09:05:21;30.90;86.00
7688;DHT22;30781;48.154;11.554;2022-08-21T09:08:09;30.80;90.00
7688;DHT22;30781;48.154;11.554;2022-08-21T09:10:57;30.90;90.20
7688;DHT22;30781;48.154;11.554;2022-08-21T09:13:37;31.10;91.90
7688;DHT22;30781;48.154;11.554;2022-08-21T09:16:13;31.10;90.40
7688;DHT22;30781;48.154;11.554;2022-08-21T09:18:57;31.00;86.80
7688;DHT22;30781;48.154;11.554;2022-08-21T09:21:31;30.60;87.40
7688;DHT22;30781;48.154;11.554;2022-08-21T09:24:08;29.90;83.80
7688;DHT22;30781;48.154;11.554;2022-08-21T09:26:46;29.40;90.30
7688;DHT22;30781;48.154;11.554;2022-08-21T09:29:17;28.90;91.70
7688;DHT22;30781;48.154;11.554;2022-08-21T09:31:48;28.40;91.60
7688;DHT22;30781;48.154;11.554;2022-08-21T09:34:25;28.00;92.10
7688;DHT22;30781;48.154;11.554;2022-08-21T09:36:53;27.50;94.60
7688;DHT22;30781;48.154;11.554;2022-08-21T09:39:24;27.30;94.90
7688;DHT22;30781;48.154;11.554;2022-08-21T09:41:56;27.10;93.80
7688;DHT22;30781;48.154;11.554;2022-08-21T09:44:26;27.00;95.10
7688;DHT22;30781;48.154;11.554;2022-08-21T09:46:54;27.10;95.70
7688;DHT22;30781;48.154;11.554;2022-08-21T09:49:31;27.10;95.70
7688;DHT22;30781;48.154;11.554;2022-08-21T09:51:59;27.00;96.50
7688;DHT22;30781;48.154;11.554;2022-08-21T09:54:30;27.00;95.20
7688;DHT22;30781;48.154;11.554;2022-08-21T09:57:00;26.90;96.30
7688;DHT22;30781;48.154;11.554;2022-08-21T09:59:46;26.80;96.40
7688;DHT22;30781;48.154;11.554;2022-08-21T10:02:24;26.70;96.90
7688;DHT22;30781;48.154;11.554;2022-08-21T10:04:57;26.60;98.00
7688;DHT22;30781;48.154;11.554;2022-08-21T10:07:27;26.70;97.20
7688;DHT22;30781;48.154;11.554;2022-08-21T10:10:00;26.80;98.00
7688;DHT22;30781;48.154;11.554;2022-08-21T10:12:35;26.80;98.00
7688;DHT22;30781;48.154;11.554;2022-08-21T10:15:13;26.90;97.60
7688;DHT22;30781;48.154;11.554;2022-08-21T10:17:47;26.80;95.90
7688;DHT22;30781;48.154;11.554;2022-08-21T10:20:23;26.70;96.90
7688;DHT22;30781;48.154;11.554;2022-08-21T10:23:02;26.60;96.90
7688;DHT22;30781;48.154;11.554;2022-08-21T10:25:37;26.80;98.10
7688;DHT22;30781;48.154;11.554;2022-08-21T10:28:11;27.00;99.10
7688;DHT22;30781;48.154;11.554;2022-08-21T10:30:48;27.10;97.30
7688;DHT22;30781;48.154;11.554;2022-08-21T10:33:24;27.10;98.00
7688;DHT22;30781;48.154;11.554;2022-08-21T10:36:02;27.00;97.50
7688;DHT22;30781;48.154;11.554;2022-08-21T10:39:01;26.90;97.10
7688;DHT22;30781;48.154;11.554;2022-08-21T10:41:48;26.90;97.50
7688;DHT22;30781;48.154;11.554;2022-08-21T10:44:32;26.80;96.60
7688;DHT22;30781;48.154;11.554;2022-08-21T10:47:06;26.70;98.40
7688;DHT22;30781;48.154;11.554;2022-08-21T10:49:39;26.60;93.90
7688;DHT22;30781;48.154;11.554;2022-08-21T10:52:35;26.60;96.30
7688;DHT22;30781;48.154;11.554;2022-08-21T10:55:09;26.80;99.50
7688;DHT22;30781;48.154;11.554;2022-08-21T10:57:44;26.80;97.40
7688;DHT22;30781;48.154;11.554;2022-08-21T11:00:17;26.70;95.40
7688;DHT22;30781;48.154;11.554;2022-08-21T11:02:49;26.60;96.40
7688;DHT22;30781;48.154;11.554;2022-08-21T11:05:24;26.40;97.50
7688;DHT22;30781;48.154;11.554;2022-08-21T11:07:57;26.10;97.70
7688;DHT22;30781;48.154;11.554;2022-08-21T11:10:29;25.70;96.90
7688;DHT22;30781;48.154;11.554;2022-08-21T11:13:01;25.50;98.60
7688;DHT22;30781;48.154;11.554;2022-08-21T11:15:33;25.30;98.50
7688;DHT22;30781;48.154;11.554;2022-08-21T11:18:15;25.20;98.90
7688;DHT22;30781;48.154;11.554;2022-08-21T11:20:49;25.00;99.50
7688;DHT22;30781;48.154;11.554;2022-08-21T11:23:22;24.90;99.50
7688;DHT22;30781;48.154;11.554;2022-08-21T11:25:55;24.90;99.60
7688;DHT22;30781;48.154;11.554;2022-08-21T11:28:28;24.80;98.60
7688;DHT22;30781;48.154;11.554;2022-08-21T11:31:06;24.80;98.80
7688;DHT22;30781;48.154;11.554;2022-08-21T11:33:54;24.80;99.10
7688;DHT22;30781;48.154;11.554;2022-08-21T11:36:29;25.00;99.90
7688;DHT22;30781;48.154;11.554;2022-08-21T11:39:04;25.10;98.60
7688;DHT22;30781;48.154;11.554;2022-08-21T11:41:37;25.10;97.80
7688;DHT22;30781;48.154;11.554;2022-08-21T11:44:11;25.20;96.80
7688;DHT22;30781;48.154;11.554;2022-08-21T11:46:48;25.30;95.70
7688;DHT22;30781;48.154;11.554;2022-08-21T11:49:27;25.40;97.60
7688;DHT22;30781;48.154;11.554;2022-08-21T11:52:07;25.40;97.10
7688;DHT22;30781;48.154;11.554;2022-08-21T11:54:42;25.40;96.20
7688;DHT22;30781;48.154;11.554;2022-08-21T11:57:17;25.40;96.60
7688;DHT22;30781;48.154;11.554;2022-08-21T12:00:01;25.40;96.70
7688;DHT22;30781;48.154;11.554;2022-08-21T12:02:34;25.30;97.30
7688;DHT22;30781;48.154;11.554;2022-08-21T12:05:05;25.30;97.80
7688;DHT22;30781;48.154;11.554;2022-08-21T12:07:36;25.30;95.10
7688;DHT22;30781;48.154;11.554;2022-08-21T12:10:07;25.30;95.10
7688;DHT22;30781;48.154;11.554;2022-08-21T12:12:36;25.30;94.80
7688;DHT22;30781;48.154;11.554;2022-08-21T12:15:15;25.30;94.20
7688;DHT22;30781;48.154;11.554;2022-08-21T12:17:55;25.20;94.70
7688;DHT22;30781;48.154;11.554;2022-08-21T12:20:34;25.30;94.30
7688;DHT22;30781;48.154;11.554;2022-08-21T12:23:14;25.20;94.20
7688;DHT22;30781;48.154;11.554;2022-08-21T12:25:46;25.10;95.80
7688;DHT22;30781;48.154;11.554;2022-08-21T12:28:22;25.20;94.20
7688;DHT22;30781;48.154;11.554;2022-08-21T12:30:50;25.20;95.80
7688;DHT22;30781;48.154;11.554;2022-08-21T12:33:22;25.40;96.50
7688;DHT22;30781;48.154;11.554;2022-08-21T12:35:52;25.40;95.40
7688;DHT22;30781;48.154;11.554;2022-08-21T12:38:21;25.50;95.40
7688;DHT22;30781;48.154;11.554;2022-08-21T12:40:54;25.60;95.80
7688;DHT22;30781;48.154;11.554;2022-08-21T12:43:28;25.70;97.00
7688;DHT22;30781;48.154;11.554;2022-08-21T12:45:56;25.90;95.90
7688;DHT22;30781;48.154;11.554;2022-08-21T12:48:31;25.90;96.50
7688;DHT22;30781;48.154;11.554;2022-08-21T12:51:08;25.90;94.10
7688;DHT22;30781;48.154;11.554;2022-08-21T12:53:42;25.90;95.10
7688;DHT22;30781;48.154;11.554;2022-08-21T12:56:14;25.80;94.20
7688;DHT22;30781;48.154;11.554;2022-08-21T12:58:46;25.80;95.60
7688;DHT22;30781;48.154;11.554;2022-08-21T13:01:19;25.80;95.10
7688;DHT22;30781;48.154;11.554;2022-08-21T13:03:51;25.80;95.10
7688;DHT22;30781;48.154;11.554;2022-08-21T13:06:21;25.70;94.70
7688;DHT22;30781;48.154;11.554;2022-08-21T13:08:53;25.70;95.70
7688;DHT22;30781;48.154;11.554;2022-08-21T13:11:24;25.60;95.20
7688;DHT22;30781;48.154;11.554;2022-08-21T13:13:53;25.70;94.50
7688;DHT22;30781;48.154;11.554;2022-08-21T13:16:23;25.70;94.20
7688;DHT22;30781;48.154;11.554;2022-08-21T13:18:55;25.70;94.90
7688;DHT22;30781;48.154;11.554;2022-08-21T13:21:28;25.80;94.70
7688;DHT22;30781;48.154;11.554;2022-08-21T13:24:09;25.90;96.20
7688;DHT22;30781;48.154;11.554;2022-08-21T13:26:38;26.00;95.50
7688;DHT22;30781;48.154;11.554;2022-08-21T13:29:10;26.10;95.10
7688;DHT22;30781;48.154;11.554;2022-08-21T13:31:39;26.10;94.60
7688;DHT22;30781;48.154;11.554;2022-08-21T13:34:09;26.20;94.50
7688;DHT22;30781;48.154;11.554;2022-08-21T13:36:40;26.10;93.80
7688;DHT22;30781;48.154;11.554;2022-08-21T13:39:11;26.00;93.00
7688;DHT22;30781;48.154;11.554;2022-08-21T13:41:43;25.90;93.40
7688;DHT22;30781;48.154;11.554;2022-08-21T13:44:16;25.90;94.60
7688;DHT22;30781;48.154;11.554;2022-08-21T13:46:44;26.00;93.80
7688;DHT22;30781;48.154;11.554;2022-08-21T13:49:14;25.90;94.40
7688;DHT22;30781;48.154;11.554;2022-08-21T13:51:42;25.90;94.10
7688;DHT22;30781;48.154;11.554;2022-08-21T13:54:23;25.80;94.20
7688;DHT22;30781;48.154;11.554;2022-08-21T13:56:53;25.70;95.30
7688;DHT22;30781;48.154;11.554;2022-08-21T13:59:26;25.70;94.00
7688;DHT22;30781;48.154;11.554;2022-08-21T14:01:55;25.60;94.00
7688;DHT22;30781;48.154;11.554;2022-08-21T14:04:30;25.60;94.00
7688;DHT22;30781;48.154;11.554;2022-08-21T14:06:58;25.60;93.40
7688;DHT22;30781;48.154;11.554;2022-08-21T14:09:30;25.60;93.40
7688;DHT22;30781;48.154;11.554;2022-08-21T14:12:02;25.50;93.90
7688;DHT22;30781;48.154;11.554;2022-08-21T14:14:32;25.60;94.40
7688;DHT22;30781;48.154;11.554;2022-08-21T14:17:02;25.50;93.30
7688;DHT22;30781;48.154;11.554;2022-08-21T14:19:37;25.50;93.90
7688;DHT22;30781;48.154;11.554;2022-08-21T14:22:23;25.40;94.40
7688;DHT22;30781;48.154;11.554;2022-08-21T14:25:00;25.50;94.80
7688;DHT22;30781;48.154;11.554;2022-08-21T14:27:30;25.40;94.00
7688;DHT22;30781;48.154;11.554;2022-08-21T14:29:59;25.40;93.80
7688;DHT22;30781;48.154;11.554;2022-08-21T14:32:28;25.30;93.60
7688;DHT22;30781;48.154;11.554;2022-08-21T14:34:57;25.30;94.50
7688;DHT22;30781;48.154;11.554;2022-08-21T14:37:25;25.20;94.00
7688;DHT22;30781;48.154;11.554;2022-08-21T14:39:52;25.20;94.00
7688;DHT22;30781;48.154;11.554;2022-08-21T14:42:20;25.20;94.10
7688;DHT22;30781;48.154;11.554;2022-08-21T14:44:49;25.20;94.20
7688;DHT22;30781;48.154;11.554;2022-08-21T14:47:17;25.20;94.10
7688;DHT22;30781;48.154;11.554;2022-08-21T14:49:44;25.20;93.40
7688;DHT22;30781;48.154;11.554;2022-08-21T14:52:11;25.10;93.50
7688;DHT22;30781;48.154;11.554;2022-08-21T14:54:39;25.10;94.90
7688;DHT22;30781;48.154;11.554;2022-08-21T14:57:08;25.00;93.50
7688;DHT22;30781;48.154;11.554;2022-08-21T14:59:37;24.90;94.80
7688;DHT22;30781;48.154;11.554;2022-08-21T15:02:07;25.00;94.70
7688;DHT22;30781;48.154;11.554;2022-08-21T15:04:35;25.10;94.50
7688;DHT22;30781;48.154;11.554;2022-08-21T15:07:03;25.10;95.30
7688;DHT22;30781;48.154;11.554;2022-08-21T15:09:30;25.10;95.10
7688;DHT22;30781;48.154;11.554;2022-08-21T15:11:58;25.10;93.60
7688;DHT22;30781;48.154;11.554;2022-08-21T15:14:28;25.10;92.40
7688;DHT22;30781;48.154;11.554;2022-08-21T15:16:56;25.10;94.40
7688;DHT22;30781;48.154;11.554;2022-08-21T15:19:25;25.10;93.20
7688;DHT22;30781;48.154;11.554;2022-08-21T15:21:53;25.00;93.00
7688;DHT22;30781;48.154;11.554;2022-08-21T15:24:20;24.90;93.10
7688;DHT22;30781;48.154;11.554;2022-08-21T15:26:48;24.80;93.60
7688;DHT22;30781;48.154;11.554;2022-08-21T15:29:16;24.80;93.70
7688;DHT22;30781;48.154;11.554;2022-08-21T15:31:51;24.80;92.90
7688;DHT22;30781;48.154;11.554;2022-08-21T15:34:20;24.70;93.60
7688;DHT22;30781;48.154;11.554;2022-08-21T15:36:48;24.60;93.20
7688;DHT22;30781;48.154;11.554;2022-08-21T15:39:16;24.70;93.60
7688;DHT22;30781;48.154;11.554;2022-08-21T15:41:44;24.80;93.70
7688;DHT22;30781;48.154;11.554;2022-08-21T15:44:12;24.80;94.00
7688;DHT22;30781;48.154;11.554;2022-08-21T15:46:40;24.80;93.00
7688;DHT22;30781;48.154;11.554;2022-08-21T15:49:10;24.80;92.50